Time;durP1;ratioP1;P1;durP2;ratioP2;P2;SDS_P1;SDS_P2;PMS_P1;PMS_P2;Temp;Humidity;BMP_temperature;BMP_pressure;BME280_temperature;BME280_humidity;BME280_pressure;Samples;Min_cycle;Max_cycle;Signal;HPM_P1;HPM_P2
2021/10/30 00:01:06;;;;;;;10.93;6.57;;;;;;;10.33;85.88;100618.06;5071586;28;20491;-63
2021/10/30 00:03:31;;;;;;;7.50;5.67;;;;;;;10.28;85.76;100615.03;5071232;28;20034;-65
2021/10/30 00:05:56;;;;;;;9.27;7.13;;;;;;;10.24;86.03;100622.53;5071408;28;20038;-64
2021/10/30 00:08:24;;;;;;;9.32;6.47;;;;;;;10.24;86.14;100619.00;5071102;28;20162;-63
2021/10/30 00:10:49;;;;;;;8.23;6.38;;;;;;;10.22;86.02;100615.66;5070516;28;20024;-63
2021/10/30 00:13:14;;;;;;;7.07;6.10;;;;;;;10.19;86.31;100611.50;5071155;28;20024;-63
2021/10/30 00:15:40;;;;;;;10.00;6.30;;;;;;;10.21;86.13;100616.66;5071038;28;20059;-64
2021/10/30 00:18:05;;;;;;;9.55;6.63;;;;;;;10.21;85.87;100614.00;5070936;28;20017;-63
2021/10/30 00:20:31;;;;;;;9.13;6.45;;;;;;;10.20;86.04;100612.31;5070831;28;20029;-64
2021/10/30 00:22:57;;;;;;;9.13;6.85;;;;;;;10.16;85.92;100611.78;5070771;28;20548;-64
2021/10/30 00:25:22;;;;;;;8.13;6.53;;;;;;;10.19;85.92;100611.50;5070988;28;20154;-64
2021/10/30 00:27:47;;;;;;;9.63;6.50;;;;;;;10.23;85.52;100615.50;5070934;28;20036;-63
2021/10/30 00:30:13;;;;;;;7.67;6.80;;;;;;;10.29;85.80;100619.38;5070679;28;20070;-65
2021/10/30 00:32:38;;;;;;;10.97;6.93;;;;;;;10.37;85.46;100621.28;5070884;28;20468;-63
2021/10/30 00:35:04;;;;;;;7.83;6.27;;;;;;;10.51;85.08;100622.56;5070634;28;20025;-63
2021/10/30 00:37:29;;;;;;;7.10;6.10;;;;;;;10.59;84.34;100623.44;5070586;28;20568;-63
2021/10/30 00:39:55;;;;;;;8.15;6.45;;;;;;;10.69;83.67;100612.69;5070700;28;20099;-65
2021/10/30 00:42:20;;;;;;;9.33;6.63;;;;;;;10.77;83.47;100619.91;5070628;28;20021;-63
2021/10/30 00:44:46;;;;;;;8.13;6.53;;;;;;;10.87;82.50;100617.94;5070525;28;20059;-63
2021/10/30 00:47:13;;;;;;;8.65;7.10;;;;;;;10.95;82.00;100617.13;5070590;28;20475;-65
2021/10/30 00:49:42;;;;;;;8.88;6.55;;;;;;;11.00;81.51;100617.50;5070482;28;20024;-63
2021/10/30 00:52:09;;;;;;;9.00;6.63;;;;;;;11.05;81.26;100607.19;5069275;28;20074;-63
2021/10/30 00:54:37;;;;;;;7.53;6.40;;;;;;;11.12;81.22;100602.03;5070684;28;20075;-64
2021/10/30 00:57:03;;;;;;;8.32;6.18;;;;;;;11.12;80.90;100602.91;5070523;28;20024;-65
2021/10/30 00:59:29;;;;;;;8.80;6.00;;;;;;;11.20;80.60;100601.25;5070343;28;20026;-66
2021/10/30 01:01:55;;;;;;;6.57;5.88;;;;;;;11.23;80.31;100596.44;5070415;28;20107;-63
2021/10/30 01:04:20;;;;;;;7.82;5.82;;;;;;;11.21;80.59;100590.41;5070367;28;20016;-65
2021/10/30 01:09:20;;;;;;;7.85;5.53;;;;;;;11.23;80.24;100583.09;5030689;28;20050;-67
2021/10/30 01:11:46;;;;;;;7.43;5.85;;;;;;;11.23;80.38;100582.28;5030338;28;20038;-66
2021/10/30 01:14:13;;;;;;;6.20;5.57;;;;;;;11.22;80.67;100572.59;5030429;28;20029;-66
2021/10/30 01:16:38;;;;;;;7.53;6.28;;;;;;;11.20;80.46;100574.56;5030514;28;20034;-67
2021/10/30 01:19:05;;;;;;;7.27;5.77;;;;;;;11.22;80.71;100570.75;5030452;28;20025;-67
2021/10/30 01:21:35;;;;;;;7.68;5.95;;;;;;;11.21;81.02;100566.41;5030905;28;20034;-65
2021/10/30 01:24:02;;;;;;;8.35;5.65;;;;;;;11.20;80.81;100562.09;5034602;28;20504;-66
2021/10/30 01:26:28;;;;;;;8.27;6.45;;;;;;;11.19;81.31;100562.22;5034409;28;20104;-66
2021/10/30 01:28:53;;;;;;;12.02;6.72;;;;;;;11.16;81.54;100565.22;5034469;28;20033;-67
2021/10/30 01:31:22;;;;;;;7.53;6.37;;;;;;;11.13;81.51;100561.88;5034242;28;20021;-67
2021/10/30 01:33:49;;;;;;;8.63;7.10;;;;;;;11.13;81.69;100567.22;5034238;28;20312;-66
2021/10/30 01:36:17;;;;;;;10.45;8.52;;;;;;;11.15;81.87;100566.22;5034482;28;20048;-66
2021/10/30 01:38:42;;;;;;;9.15;7.50;;;;;;;11.17;81.68;100561.56;5033949;28;20037;-66
2021/10/30 01:41:07;;;;;;;12.13;9.13;;;;;;;11.17;81.88;100562.38;5034403;28;20193;-66
2021/10/30 01:43:33;;;;;;;11.05;7.93;;;;;;;11.17;82.10;100566.91;5034132;28;20497;-66
2021/10/30 01:45:59;;;;;;;9.30;7.55;;;;;;;11.16;82.20;100562.56;5033799;28;20033;-66
2021/10/30 01:48:35;;;;;;;8.97;7.50;;;;;;;11.15;82.15;100559.06;5049288;28;20168;-66
2021/10/30 01:51:01;;;;;;;11.25;7.35;;;;;;;11.17;81.97;100551.72;5034135;28;20037;-67
2021/10/30 01:53:27;;;;;;;9.80;7.82;;;;;;;11.15;82.19;100551.06;5034041;28;20022;-67
2021/10/30 01:55:52;;;;;;;9.75;7.88;;;;;;;11.13;82.45;100543.22;5034031;28;20026;-66
2021/10/30 01:58:18;;;;;;;8.93;7.18;;;;;;;11.13;82.29;100535.19;5033882;28;20030;-67
2021/10/30 02:00:46;;;;;;;8.23;6.68;;;;;;;11.12;82.22;100530.03;5033680;28;20025;-66
2021/10/30 02:03:11;;;;;;;7.32;6.43;;;;;;;11.10;82.35;100532.06;5033804;28;20033;-66
2021/10/30 02:05:37;;;;;;;8.23;6.50;;;;;;;11.04;82.58;100528.19;5033853;28;20030;-67
2021/10/30 02:08:03;;;;;;;8.33;6.33;;;;;;;11.04;82.46;100514.84;5033427;28;20103;-67
2021/10/30 02:10:28;;;;;;;8.80;6.00;;;;;;;11.02;82.41;100505.34;5033644;28;20308;-67
2021/10/30 02:12:54;;;;;;;6.50;5.30;;;;;;;11.01;82.52;100507.19;5033678;28;20045;-66
2021/10/30 02:15:19;;;;;;;6.18;5.57;;;;;;;10.99;82.72;100500.34;5033476;28;20108;-67
2021/10/30 02:17:45;;;;;;;6.20;5.60;;;;;;;10.93;82.81;100500.00;5033543;28;20029;-66
2021/10/30 02:20:11;;;;;;;9.40;5.55;;;;;;;10.88;83.15;100499.63;5033670;28;20029;-66
2021/10/30 02:22:38;;;;;;;7.55;5.78;;;;;;;10.85;82.88;100505.31;5033586;28;20025;-66
2021/10/30 02:25:09;;;;;;;6.82;5.43;;;;;;;10.82;83.22;100502.13;5033456;28;20579;-67
2021/10/30 02:27:35;;;;;;;7.40;6.07;;;;;;;10.80;83.30;100491.63;5033231;28;20047;-66
2021/10/30 02:30:01;;;;;;;6.55;5.80;;;;;;;10.79;83.21;100490.81;5033289;28;20061;-66
2021/10/30 02:32:26;;;;;;;8.80;6.00;;;;;;;10.80;83.21;100475.63;5033559;28;20026;-67
2021/10/30 02:34:52;;;;;;;7.75;6.30;;;;;;;10.75;83.56;100467.28;5032747;28;20037;-66
2021/10/30 02:37:17;;;;;;;8.10;5.50;;;;;;;10.71;83.52;100458.78;5033197;28;20434;-66
2021/10/30 02:39:42;;;;;;;6.63;5.93;;;;;;;10.65;83.70;100456.78;5033383;28;20052;-64
2021/10/30 02:42:08;;;;;;;8.43;6.30;;;;;;;10.59;83.68;100446.75;5033384;28;20034;-67
2021/10/30 02:44:33;;;;;;;8.85;6.50;;;;;;;10.50;84.32;100445.06;5033032;28;20053;-67
2021/10/30 02:46:59;;;;;;;7.55;6.30;;;;;;;10.42;84.63;100446.69;5032918;28;20069;-67
2021/10/30 02:49:24;;;;;;;6.70;5.67;;;;;;;10.36;84.85;100446.47;5032985;28;20026;-66
2021/10/30 02:51:50;;;;;;;9.70;6.70;;;;;;;10.33;85.14;100434.28;5033147;28;20445;-65
2021/10/30 02:54:15;;;;;;;7.60;6.00;;;;;;;10.30;85.49;100435.44;5033077;28;20735;-66
2021/10/30 02:56:41;;;;;;;8.45;5.78;;;;;;;10.27;85.59;100427.78;5032849;28;20025;-67
2021/10/30 02:59:06;;;;;;;8.32;6.20;;;;;;;10.29;85.89;100428.44;5048330;28;20033;-66
2021/10/30 03:01:31;;;;;;;7.33;6.47;;;;;;;10.33;85.85;100412.97;5032836;28;20025;-66
2021/10/30 03:03:57;;;;;;;7.83;6.40;;;;;;;10.34;85.83;100412.00;5032784;28;20400;-66
2021/10/30 03:06:22;;;;;;;7.07;5.97;;;;;;;10.36;85.75;100409.19;5032728;28;20025;-65
2021/10/30 03:08:48;;;;;;;6.38;5.63;;;;;;;10.37;86.02;100405.53;5032519;28;20117;-65
2021/10/30 03:11:14;;;;;;;7.05;5.68;;;;;;;10.39;85.76;100404.38;5032700;28;20037;-67
2021/10/30 03:13:40;;;;;;;7.85;6.25;;;;;;;10.39;86.02;100401.72;5032695;28;20033;-65
2021/10/30 03:16:05;;;;;;;7.50;6.60;;;;;;;10.40;86.26;100402.53;5032575;28;20057;-67
2021/10/30 03:18:31;;;;;;;11.03;6.93;;;;;;;10.43;86.23;100397.72;5032523;28;20276;-67
2021/10/30 03:20:56;;;;;;;7.78;6.10;;;;;;;10.47;86.14;100382.28;5032414;28;20444;-66
2021/10/30 03:23:21;;;;;;;7.43;5.57;;;;;;;10.50;86.01;100383.78;5032607;28;20021;-66
2021/10/30 03:25:46;;;;;;;7.53;5.80;;;;;;;10.50;86.07;100386.44;5032356;28;20473;-67
2021/10/30 03:28:12;;;;;;;6.10;5.20;;;;;;;10.52;86.19;100382.63;5032430;28;20116;-66
2021/10/30 03:30:37;;;;;;;6.40;5.30;;;;;;;10.49;86.00;100385.59;5032425;28;20031;-65
2021/10/30 03:33:03;;;;;;;6.05;5.20;;;;;;;10.49;86.04;100371.44;5032556;28;20636;-67
2021/10/30 03:35:28;;;;;;;6.65;5.50;;;;;;;10.49;86.63;100374.09;5032071;28;20449;-67
2021/10/30 03:37:54;;;;;;;5.70;5.10;;;;;;;10.49;86.88;100364.28;5032185;28;20132;-67
2021/10/30 03:40:19;;;;;;;7.10;5.43;;;;;;;10.45;87.02;100370.94;5032039;28;20509;-66
2021/10/30 03:42:44;;;;;;;6.47;5.80;;;;;;;10.42;87.37;100368.59;5031961;28;20030;-66
2021/10/30 03:45:10;;;;;;;8.43;5.77;;;;;;;10.39;87.58;100366.28;5031052;28;20402;-66
2021/10/30 03:47:35;;;;;;;5.67;5.17;;;;;;;10.38;87.88;100357.44;5047045;28;20032;-65
2021/10/30 03:50:01;;;;;;;6.80;6.10;;;;;;;10.35;87.71;100362.22;5031805;28;20101;-66
2021/10/30 03:52:26;;;;;;;6.18;5.57;;;;;;;10.35;87.90;100359.53;5031737;28;20528;-66
2021/10/30 03:54:53;;;;;;;7.43;5.73;;;;;;;10.35;88.20;100356.88;5031641;28;20381;-65
2021/10/30 03:57:19;;;;;;;7.03;6.03;;;;;;;10.35;88.28;100348.88;5031750;28;20123;-66
2021/10/30 03:59:45;;;;;;;6.68;6.07;;;;;;;10.31;88.26;100343.06;5031640;28;20393;-67
2021/10/30 04:02:10;;;;;;;7.93;6.23;;;;;;;10.28;88.22;100349.56;5031384;28;20083;-65
2021/10/30 04:04:36;;;;;;;7.97;5.70;;;;;;;10.24;88.50;100350.88;5031653;28;20021;-67
2021/10/30 04:07:02;;;;;;;7.17;6.10;;;;;;;10.20;88.28;100340.69;5031189;28;20038;-67
2021/10/30 04:09:28;;;;;;;7.00;5.78;;;;;;;10.20;88.41;100327.38;5031128;28;20125;-66
2021/10/30 04:11:54;;;;;;;7.40;6.40;;;;;;;10.17;88.40;100322.38;5031497;28;20457;-67
2021/10/30 04:14:20;;;;;;;7.97;6.47;;;;;;;10.14;88.51;100323.53;5031403;28;20029;-65
2021/10/30 04:16:46;;;;;;;7.35;6.53;;;;;;;10.13;88.52;100328.03;5031211;28;20021;-66
2021/10/30 04:19:13;;;;;;;6.90;6.20;;;;;;;10.12;88.72;100329.03;5031205;28;20025;-67
2021/10/30 04:21:39;;;;;;;7.35;6.63;;;;;;;10.13;88.84;100328.03;5031169;28;20474;-67
2021/10/30 04:24:04;;;;;;;8.02;7.15;;;;;;;10.11;88.79;100321.19;5031055;28;20036;-66
2021/10/30 04:26:30;;;;;;;7.95;6.95;;;;;;;10.11;88.93;100321.19;5030967;28;20108;-66
2021/10/30 04:28:55;;;;;;;7.70;6.23;;;;;;;10.11;88.96;100321.19;5031277;28;20056;-66
2021/10/30 04:31:22;;;;;;;7.93;6.95;;;;;;;10.07;89.31;100315.38;5031095;28;20021;-66
2021/10/30 04:33:48;;;;;;;8.80;6.63;;;;;;;10.08;89.06;100306.38;5030996;28;20104;-64
2021/10/30 04:36:17;;;;;;;7.53;6.63;;;;;;;10.08;89.35;100303.69;5031060;28;20163;-65
2021/10/30 04:38:43;;;;;;;7.18;6.43;;;;;;;10.06;89.35;100296.88;5030716;28;20076;-65
2021/10/30 04:41:10;;;;;;;8.30;7.00;;;;;;;10.06;89.74;100291.56;5031295;28;20029;-64
2021/10/30 04:43:35;;;;;;;7.97;7.03;;;;;;;10.06;89.86;100287.06;5031006;28;20033;-66
2021/10/30 04:46:00;;;;;;;8.17;6.90;;;;;;;10.06;89.62;100284.41;5031046;28;20033;-65
2021/10/30 04:48:26;;;;;;;8.63;7.30;;;;;;;10.04;89.85;100277.59;5030737;28;20052;-65
2021/10/30 04:50:52;;;;;;;7.57;6.77;;;;;;;10.03;89.99;100278.56;5030921;28;20041;-66
2021/10/30 04:53:18;;;;;;;7.88;7.05;;;;;;;10.03;90.11;100275.91;5030653;28;20771;-66
2021/10/30 04:55:43;;;;;;;8.03;6.87;;;;;;;10.02;90.42;100263.59;5030656;28;20124;-66
2021/10/30 04:58:08;;;;;;;7.93;7.00;;;;;;;10.02;90.38;100252.94;5030313;28;20104;-67
2021/10/30 05:00:34;;;;;;;8.63;7.23;;;;;;;10.00;90.56;100262.94;5030881;28;20108;-68
2021/10/30 05:02:59;;;;;;;8.17;6.90;;;;;;;9.99;90.70;100263.91;5030705;28;20056;-67
2021/10/30 05:05:24;;;;;;;7.40;6.40;;;;;;;10.01;90.73;100267.25;5030423;28;20519;-68
2021/10/30 05:07:51;;;;;;;8.43;7.07;;;;;;;10.01;90.71;100251.25;5076321;22;20159;-68
2021/10/30 05:10:16;;;;;;;9.97;7.10;;;;;;;10.01;90.84;100252.13;5090864;28;20457;-67
2021/10/30 05:12:41;;;;;;;7.30;6.50;;;;;;;10.02;90.87;100248.47;5091005;28;20077;-67
2021/10/30 05:15:07;;;;;;;8.30;6.87;;;;;;;10.02;90.78;100251.13;5090897;28;20039;-66
2021/10/30 05:17:33;;;;;;;10.52;7.43;;;;;;;10.01;90.99;100243.28;5090775;28;20024;-67
2021/10/30 05:19:58;;;;;;;7.10;6.40;;;;;;;10.05;91.00;100245.47;5090797;28;20020;-67
2021/10/30 05:22:23;;;;;;;8.13;6.50;;;;;;;10.03;91.02;100244.78;5090714;28;20024;-67
2021/10/30 05:24:49;;;;;;;7.43;6.63;;;;;;;10.05;91.11;100242.81;5105805;28;20028;-67
2021/10/30 05:27:15;;;;;;;9.20;6.80;;;;;;;10.07;90.93;100235.50;5090648;28;20384;-67
2021/10/30 05:29:41;;;;;;;8.50;6.25;;;;;;;10.09;91.10;100227.34;5090570;28;20021;-68
2021/10/30 05:32:07;;;;;;;7.67;6.47;;;;;;;10.11;91.08;100233.31;5090640;28;20020;-68
2021/10/30 05:34:32;;;;;;;8.43;6.63;;;;;;;10.12;91.25;100227.88;5090403;28;20360;-67
2021/10/30 05:36:57;;;;;;;7.27;6.53;;;;;;;10.13;91.19;100221.50;5090319;28;20056;-67
2021/10/30 05:39:24;;;;;;;7.30;6.60;;;;;;;10.17;91.03;100218.56;5090462;28;20524;-65
2021/10/30 05:41:50;;;;;;;8.43;6.93;;;;;;;10.17;91.10;100211.38;5090586;28;20036;-66
2021/10/30 05:44:15;;;;;;;7.60;6.45;;;;;;;10.20;91.00;100208.38;5090692;28;20016;-65
2021/10/30 05:46:41;;;;;;;7.60;5.82;;;;;;;10.21;91.02;100199.41;5090340;28;20154;-63
2021/10/30 05:49:08;;;;;;;6.93;5.90;;;;;;;10.23;91.12;100194.75;5090620;28;20031;-63
2021/10/30 05:51:34;;;;;;;6.97;5.70;;;;;;;10.22;90.98;100190.41;5090332;28;20016;-66
2021/10/30 05:54:00;;;;;;;;;;;;;;;10.26;91.02;100182.94;5090795;28;20031;-64
2021/10/30 05:56:25;;;;;;;7.88;6.18;;;;;;;10.26;91.07;100186.44;5090292;28;19918;-64
2021/10/30 05:58:51;;;;;;;7.55;5.90;;;;;;;10.26;90.79;100183.75;5090274;28;20055;-64
2021/10/30 06:01:16;;;;;;;8.00;6.33;;;;;;;10.26;91.17;100180.28;5090537;28;20032;-64
2021/10/30 06:03:41;;;;;;;7.97;6.07;;;;;;;10.26;91.05;100182.94;5090311;28;20030;-66
2021/10/30 06:06:07;;;;;;;7.93;6.37;;;;;;;10.29;91.09;100195.91;5090279;28;20107;-65
2021/10/30 06:08:32;;;;;;;7.18;6.43;;;;;;;10.32;91.13;100194.75;5090211;28;20040;-67
2021/10/30 06:10:58;;;;;;;6.53;5.90;;;;;;;10.30;91.02;100170.97;5094249;28;20024;-66
2021/10/30 06:13:23;;;;;;;8.43;5.97;;;;;;;10.29;90.85;100174.59;5109421;28;20460;-67
2021/10/30 06:15:51;;;;;;;7.45;5.70;;;;;;;10.29;91.11;100182.59;5094080;28;20383;-64
2021/10/30 06:18:17;;;;;;;5.85;5.25;;;;;;;10.29;91.14;100182.59;5093845;28;20036;-64
2021/10/30 06:20:42;;;;;;;7.13;6.03;;;;;;;10.29;91.25;100191.41;5093838;28;20461;-64
2021/10/30 06:23:08;;;;;;;6.82;5.63;;;;;;;10.29;90.99;100185.25;5093846;28;20098;-64
2021/10/30 06:25:33;;;;;;;7.10;6.05;;;;;;;10.33;91.13;100188.44;5093510;28;20028;-66
2021/10/30 06:27:58;;;;;;;7.03;6.30;;;;;;;10.35;91.03;100183.75;5093693;28;20020;-66
2021/10/30 06:30:24;;;;;;;7.07;6.38;;;;;;;10.33;91.13;100178.59;5093541;28;20081;-66
2021/10/30 06:32:51;;;;;;;6.85;5.82;;;;;;;10.34;91.15;100190.09;5093434;28;20042;-65
2021/10/30 06:35:17;;;;;;;7.45;6.47;;;;;;;10.37;90.84;100184.47;5093550;28;20063;-63
2021/10/30 06:37:42;;;;;;;7.28;5.88;;;;;;;10.38;90.79;100178.97;5093377;28;20067;-64
2021/10/30 06:40:10;;;;;;;9.40;6.40;;;;;;;10.39;91.16;100170.00;5093723;28;20023;-65
2021/10/30 06:42:36;;;;;;;7.90;6.00;;;;;;;10.39;90.74;100171.84;5093597;28;20028;-64
2021/10/30 06:45:03;;;;;;;7.50;6.47;;;;;;;10.40;91.01;100160.16;5093490;28;20031;-64
2021/10/30 06:47:30;;;;;;;8.30;5.80;;;;;;;10.45;90.93;100160.50;5093202;28;20038;-64
2021/10/30 06:49:58;;;;;;;6.97;5.65;;;;;;;10.46;90.72;100160.31;5093329;28;20555;-63
2021/10/30 06:52:24;;;;;;;7.85;6.07;;;;;;;10.50;90.79;100154.69;5092056;28;20059;-64
2021/10/30 06:54:49;;;;;;;6.65;5.75;;;;;;;10.54;90.76;100153.34;5093199;28;20032;-65
2021/10/30 06:57:14;;;;;;;6.40;5.70;;;;;;;10.54;90.53;100140.84;5093086;28;20039;-63
2021/10/30 06:59:40;;;;;;;7.37;5.60;;;;;;;10.57;90.60;100147.66;5093279;28;20444;-65
2021/10/30 07:02:07;;;;;;;6.87;5.67;;;;;;;10.54;90.41;100140.00;5093099;28;20529;-64
2021/10/30 07:04:33;;;;;;;6.03;5.30;;;;;;;10.56;90.42;100133.50;5092733;28;20052;-63
2021/10/30 07:06:59;;;;;;;6.78;5.57;;;;;;;10.57;90.35;100127.19;5091205;28;20499;-63
2021/10/30 07:09:24;;;;;;;6.57;4.93;;;;;;;10.57;89.93;100115.69;5092702;28;20065;-64
2021/10/30 07:11:49;;;;;;;6.43;5.50;;;;;;;10.58;90.43;100120.84;5092751;28;20031;-65
2021/10/30 07:14:15;;;;;;;5.23;4.67;;;;;;;10.58;90.22;100120.84;5092851;28;20495;-64
2021/10/30 07:16:40;;;;;;;5.27;4.77;;;;;;;10.60;89.99;100123.34;5092897;28;20048;-63
2021/10/30 07:19:05;;;;;;;5.30;4.80;;;;;;;10.60;90.08;100123.34;5092715;28;20031;-63
2021/10/30 07:21:31;;;;;;;8.60;4.80;;;;;;;10.59;89.91;100117.19;5092516;28;20024;-62
2021/10/30 07:24:00;;;;;;;6.30;5.30;;;;;;;10.58;90.19;100117.34;5092683;28;20035;-63
2021/10/30 07:26:25;;;;;;;6.85;5.13;;;;;;;10.58;90.04;100136.81;5092357;28;20028;-63
2021/10/30 07:28:50;;;;;;;5.37;4.87;;;;;;;10.59;90.17;100122.50;5092657;28;20372;-61
2021/10/30 07:31:16;;;;;;;6.27;5.10;;;;;;;10.61;90.19;100115.19;5092405;28;20020;-62
2021/10/30 07:33:41;;;;;;;6.80;5.10;;;;;;;10.61;90.11;100107.19;5092423;28;20636;-62
2021/10/30 07:36:06;;;;;;;6.97;5.00;;;;;;;10.63;90.15;100102.50;5092483;28;20077;-63
2021/10/30 07:38:33;;;;;;;6.78;5.22;;;;;;;10.63;90.04;100113.16;5092152;28;20086;-64
2021/10/30 07:40:58;;;;;;;;;;;;;;;10.63;90.18;100105.19;5089739;28;20554;-64
2021/10/30 07:43:23;;;;;;;7.30;5.28;;;;;;;10.65;89.89;100110.38;5092237;28;19991;-64
2021/10/30 07:45:49;;;;;;;5.72;5.20;;;;;;;10.65;89.87;100105.03;5092377;28;20047;-63
2021/10/30 07:48:14;;;;;;;6.27;5.23;;;;;;;10.66;89.95;100100.53;5092217;28;20491;-63
2021/10/30 07:50:39;;;;;;;5.97;5.37;;;;;;;10.68;90.03;100088.69;5092116;28;20035;-63
2021/10/30 07:53:05;;;;;;;6.18;5.35;;;;;;;10.70;89.98;100099.19;5092063;28;20055;-63
2021/10/30 07:55:30;;;;;;;5.22;4.70;;;;;;;10.69;89.96;100094.84;5092041;28;20073;-63
2021/10/30 07:57:56;;;;;;;7.23;5.20;;;;;;;10.71;89.77;100090.19;5090524;28;20089;-63
2021/10/30 08:00:22;;;;;;;7.68;5.63;;;;;;;10.73;89.95;100091.69;5092195;28;20073;-64
2021/10/30 08:02:48;;;;;;;6.32;5.63;;;;;;;10.77;89.38;100093.00;5091864;28;20467;-63
2021/10/30 08:05:14;;;;;;;;;;;;;;;10.81;89.60;100090.84;5092298;28;20052;-63
2021/10/30 08:07:43;;;;;;;6.30;5.30;;;;;;;10.82;89.44;100086.31;5091256;28;19974;-62
2021/10/30 08:10:10;;;;;;;7.25;5.13;;;;;;;10.81;89.54;100082.84;5091878;28;20039;-62
2021/10/30 08:12:36;;;;;;;6.13;5.53;;;;;;;10.84;89.30;100076.34;5090271;28;20042;-63
2021/10/30 08:15:03;;;;;;;5.78;5.07;;;;;;;10.85;89.47;100083.31;5091811;28;20095;-64
2021/10/30 08:17:28;;;;;;;5.28;4.78;;;;;;;10.87;89.15;100081.31;5091541;28;20036;-62
2021/10/30 08:19:54;;;;;;;6.03;5.03;;;;;;;10.86;89.01;100083.16;5091568;28;20019;-63
2021/10/30 08:22:19;;;;;;;4.53;4.13;;;;;;;10.92;89.19;100086.97;5091437;28;20116;-64
2021/10/30 08:24:48;;;;;;;5.28;4.30;;;;;;;10.94;89.16;100092.97;5091584;28;20024;-61
2021/10/30 08:27:15;;;;;;;4.75;4.32;;;;;;;10.95;88.70;100095.44;5091199;28;20512;-73
2021/10/30 08:29:41;;;;;;;4.93;4.47;;;;;;;10.95;88.84;100090.13;5091304;28;20067;-69
2021/10/30 08:32:08;;;;;;;5.82;4.18;;;;;;;11.00;88.69;100097.59;5091010;28;20077;-72
2021/10/30 08:34:34;;;;;;;4.88;3.90;;;;;;;11.00;88.48;100092.25;5091422;28;20027;-73
2021/10/30 08:36:59;;;;;;;5.33;4.33;;;;;;;11.05;88.41;100083.75;5091224;28;20087;-73
2021/10/30 08:39:24;;;;;;;4.17;3.63;;;;;;;11.09;87.87;100085.06;5091299;28;20459;-71
2021/10/30 08:41:50;;;;;;;3.90;3.50;;;;;;;11.09;88.14;100082.41;5091170;28;20518;-72
2021/10/30 08:44:19;;;;;;;4.10;3.70;;;;;;;11.15;88.11;100078.19;5091046;28;20024;-71
2021/10/30 08:46:45;;;;;;;3.83;3.53;;;;;;;11.18;87.74;100064.53;5091198;28;20028;-69
2021/10/30 08:49:11;;;;;;;6.95;3.70;;;;;;;11.20;87.64;100066.03;5091344;28;20031;-69
2021/10/30 08:51:36;;;;;;;;;;;;;;;11.21;87.80;100067.66;5091651;28;20043;-69
2021/10/30 08:54:03;;;;;;;4.72;3.63;;;;;;;11.20;87.74;100063.34;5091112;28;20011;-68
2021/10/30 08:56:29;;;;;;;3.85;3.55;;;;;;;11.22;87.55;100058.66;5091036;28;20390;-72
2021/10/30 08:58:55;;;;;;;4.03;3.63;;;;;;;11.23;88.02;100064.84;5090817;28;20099;-72
2021/10/30 09:01:20;;;;;;;3.90;3.50;;;;;;;11.19;88.27;100060.84;5091025;28;20020;-71
2021/10/30 09:03:58;;;;;;;3.87;3.57;;;;;;;11.20;88.43;100066.03;5091052;28;20032;-75
2021/10/30 09:09:16;;;;;;;4.00;3.58;;;;;;;11.22;88.59;100061.31;5097672;22;20059;-75
2021/10/30 09:11:52;;;;;;;3.97;3.58;;;;;;;11.20;88.65;100057.16;5090930;28;20032;-70
2021/10/30 09:14:26;;;;;;;4.55;3.80;;;;;;;11.16;88.72;100063.88;5090657;28;20451;-68
2021/10/30 09:17:22;;;;;;;4.50;3.45;;;;;;;11.15;89.25;100057.72;5090436;28;20616;-66
2021/10/30 09:19:52;;;;;;;3.92;3.53;;;;;;;11.12;89.31;100058.88;5090565;28;20372;-68
2021/10/30 09:22:20;;;;;;;4.18;3.75;;;;;;;11.11;89.48;100040.41;5090533;28;20111;-68
2021/10/30 09:25:04;;;;;;;3.90;3.45;;;;;;;11.14;89.25;100045.38;5090733;28;20169;-68
2021/10/30 09:27:55;;;;;;;4.38;3.72;;;;;;;11.13;89.33;100044.53;5089177;28;20475;-67
2021/10/30 09:30:24;;;;;;;4.03;3.72;;;;;;;11.11;89.44;100043.06;5090708;28;20127;-69
2021/10/30 09:33:00;;;;;;;4.10;3.70;;;;;;;11.19;89.29;100044.84;5090775;28;20036;-69
2021/10/30 09:35:40;;;;;;;3.67;3.37;;;;;;;11.19;89.30;100043.00;5090536;28;20031;-68
2021/10/30 09:38:05;;;;;;;5.28;3.97;;;;;;;11.18;89.26;100040.53;5090366;28;20036;-69
2021/10/30 09:40:32;;;;;;;4.22;3.80;;;;;;;11.19;89.47;100045.69;5090628;28;20032;-70
2021/10/30 09:43:24;;;;;;;4.60;4.15;;;;;;;11.26;88.82;100033.28;5091402;28;20044;-70
2021/10/30 09:45:50;;;;;;;4.18;3.47;;;;;;;11.30;89.07;100041.78;5092119;28;20078;-70
2021/10/30 09:48:24;;;;;;;4.07;3.65;;;;;;;11.30;88.64;100037.25;5094480;28;20024;-70
2021/10/30 09:50:58;;;;;;;3.63;3.30;;;;;;;11.32;89.08;100036.25;5094204;28;20048;-69
2021/10/30 09:53:29;;;;;;;4.38;3.80;;;;;;;11.30;89.00;100036.44;5094281;28;20107;-69
2021/10/30 09:56:07;;;;;;;4.13;3.70;;;;;;;11.28;89.31;100031.28;5094396;28;20028;-68
2021/10/30 09:58:40;;;;;;;3.83;3.53;;;;;;;11.34;89.10;100028.94;5094303;28;20028;-69
2021/10/30 10:01:09;;;;;;;3.65;3.20;;;;;;;11.45;88.90;100031.19;5094304;28;20047;-68
2021/10/30 10:03:35;;;;;;;3.78;3.47;;;;;;;11.48;88.74;100025.50;5094348;28;20551;-67
2021/10/30 10:06:04;;;;;;;3.65;3.35;;;;;;;11.41;88.41;100035.22;5093855;28;20063;-71
2021/10/30 10:08:30;;;;;;;3.58;3.28;;;;;;;11.42;88.74;100032.34;5093779;28;20047;-68
2021/10/30 10:10:58;;;;;;;4.75;3.58;;;;;;;11.50;88.64;100023.47;5094257;28;20088;-74
2021/10/30 10:13:24;;;;;;;4.93;3.60;;;;;;;11.52;88.45;100026.81;5093924;28;20051;-70
2021/10/30 10:15:50;;;;;;;3.90;3.60;;;;;;;11.51;88.36;100027.00;5093860;28;20024;-70
2021/10/30 10:18:17;;;;;;;4.40;3.58;;;;;;;11.52;88.52;100018.81;5092578;28;20028;-73
2021/10/30 10:20:46;;;;;;;4.38;3.70;;;;;;;11.54;88.40;100024.78;5093639;28;20422;-72
2021/10/30 10:23:18;;;;;;;4.00;3.50;;;;;;;11.58;88.65;100027.94;5093833;28;20107;-71
2021/10/30 10:25:49;;;;;;;3.67;3.38;;;;;;;11.57;88.20;100032.44;5093760;28;20032;-72
2021/10/30 10:28:34;;;;;;;3.47;3.17;;;;;;;11.63;88.10;100023.75;5093759;28;20115;-73
2021/10/30 10:31:10;;;;;;;3.75;3.30;;;;;;;11.66;87.93;100027.03;5093664;28;20043;-70
2021/10/30 10:33:40;;;;;;;3.55;3.30;;;;;;;11.57;88.22;100019.09;5093493;28;20024;-72
2021/10/30 10:36:14;;;;;;;3.72;3.38;;;;;;;11.60;88.20;100015.25;5093476;28;20089;-73
2021/10/30 10:39:13;;;;;;;3.28;3.03;;;;;;;11.59;88.30;100006.41;5093377;28;20386;-72
2021/10/30 10:41:38;;;;;;;3.47;3.17;;;;;;;11.63;88.53;99998.88;5084393;28;20031;-72
2021/10/30 10:44:22;;;;;;;3.43;3.13;;;;;;;11.63;88.44;99990.88;5093335;28;20077;-71
2021/10/30 10:46:53;;;;;;;3.60;3.30;;;;;;;11.68;88.04;100003.69;5092863;28;20829;-70
2021/10/30 10:52:23;;;;;;;3.90;3.45;;;;;;;11.70;88.55;99990.97;5093102;28;20157;-72
2021/10/30 10:54:55;;;;;;;4.07;3.22;;;;;;;11.74;88.27;99987.78;5092557;28;20055;-71
2021/10/30 10:57:30;;;;;;;3.95;3.47;;;;;;;11.75;88.12;99988.59;5093238;28;20032;-70
2021/10/30 10:59:59;;;;;;;4.38;3.28;;;;;;;11.81;87.97;99990.56;5093082;28;20107;-69
2021/10/30 11:02:41;;;;;;;3.55;3.28;;;;;;;11.83;87.97;99990.38;5093062;28;20069;-69
2021/10/30 11:05:14;;;;;;;3.83;3.10;;;;;;;11.78;87.77;99989.06;5092992;28;20119;-70
2021/10/30 11:07:40;;;;;;;3.38;3.10;;;;;;;11.81;87.75;99984.41;5091274;28;20056;-71
2021/10/30 11:10:23;;;;;;;3.58;3.10;;;;;;;11.84;87.54;99984.03;5093053;28;20111;-71
2021/10/30 11:13:09;;;;;;;3.05;2.85;;;;;;;11.82;87.40;99976.22;5092881;28;20028;-71
2021/10/30 11:15:52;;;;;;;3.47;3.17;;;;;;;11.81;87.62;99971.88;5092728;28;20028;-71
2021/10/30 11:18:36;;;;;;;4.35;3.30;;;;;;;11.83;87.66;99974.34;5091060;28;20020;-70
2021/10/30 11:21:09;;;;;;;3.55;3.22;;;;;;;11.82;87.79;99968.19;5092699;28;20522;-71
2021/10/30 11:23:54;;;;;;;3.42;3.20;;;;;;;11.86;87.76;99961.47;5084239;28;20021;-70
2021/10/30 11:26:34;;;;;;;3.50;3.10;;;;;;;11.90;87.61;99952.09;5071949;28;20033;-70
2021/10/30 11:29:03;;;;;;;3.40;3.10;;;;;;;11.94;87.97;99956.06;5071189;28;20033;-71
2021/10/30 11:31:30;;;;;;;3.13;2.92;;;;;;;11.91;87.71;99947.56;5075259;28;20066;-71
2021/10/30 11:34:02;;;;;;;3.50;3.20;;;;;;;11.90;87.81;99953.94;5089579;28;20111;-70
2021/10/30 11:36:28;;;;;;;3.88;3.45;;;;;;;11.88;88.11;99939.94;5071304;28;20025;-71